Monday, January 21, 2019, 5:09 PM EST
Back to Local

KUUU, Newport State Airport

Location: Middletown, RI, United States Lat: 41.533
Local Time: 5:09 PM EST (22:09 GMT) Lon: -71.283
Time Zone: US/Eastern Elev: 170 ft

Show me the last for .
Show Coded

Time T Td Feel RH Dir Speed Gust Alt SLP Vis Weather Sky Remarks
2019-01-21 16:53 4 -8 -22 56 300° 26 37 29.92 29.93 10 SCT034 SCT070 OVC095 Peak wind: 40 mph (35 kts) from 320° at 41 min
2019-01-21 16:04 4 -6 -23 62 320° 22 38 29.89 - 10 SCT026 BKN034 Peak wind: 37 mph (33 kts) from 310° at 58 min
2019-01-21 15:53 5 -6 -20 59 300° 22 33 29.89 29.90 10 BKN028 OVC034 Peak wind: 33 mph (29 kts) from 310° at 28 min
1-hr Precip Total: Trace
6-hr Precip Total (4pm): 0.00"
2019-01-21 15:01 5 -5 -19 62 310° 18 30 29.85 - 10 FEW025 OVC034 Peak wind: 29 mph (26 kts) from 280° at 59 min
2019-01-21 14:53 5 -6 -20 59 300° 17 33 29.85 29.86 10 FEW022 BKN029 OVC035 Peak wind: 34 mph (30 kts) from 310° at 39 min
2019-01-21 14:48 5 -6 -20 60 300° 21 35 29.85 - 10 SCT025 OVC031 Peak wind: 34 mph (30 kts) from 310° at 39 min
2019-01-21 13:53 5 -5 -19 62 290° 17 30 29.82 29.83 10 BKN026 BKN031 Peak wind: 31 mph (27 kts) from 280° at 10 min
2019-01-21 12:53 5 -6 -20 59 280° 18 32 29.82 29.82 10 OVC029 Peak wind: 32 mph (28 kts) from 280° at 45 min
6-hr Min Temp (1pm): 1.9°F
6-hr Max Temp (1pm): 6.1°F
2019-01-21 11:53 4 -6 -20 62 310° 18 29 29.82 29.83 10 BKN027 Peak wind: 32 mph (28 kts) from 300° at 10 min
2019-01-21 10:53 4 -7 -19 59 300° 16 25 29.83 29.83 10 BKN028 Peak wind: 29 mph (26 kts) from 320° at 01 min
2019-01-21 10:08 3 -8 -22 59 320° 18 30 29.82 - 10 SCT025 SCT030 Peak wind: 29 mph (26 kts) from 320° at 01 min
2019-01-21 09:53 4 -6 -20 62 310° 16 28 29.82 29.82 10 BKN025 None
2019-01-21 08:53 3 -8 -22 59 300° 16 31 29.79 29.80 10 FEW023 Peak wind: 31 mph (27 kts) from 320° at 46 min
2019-01-21 07:53 2 -7 -22 65 290° 15 26 29.76 29.77 10 FEW022 Peak wind: 31 mph (27 kts) from 280° at 33 min
2019-01-21 06:53 3 -7 -21 61 300° 20 26 29.73 29.73 10 CLR 24-hr Precip Total (7am): 1.26"
6-hr Min Temp (7am): 1.9°F
6-hr Max Temp (7am): 10.0°F
2019-01-21 05:53 3 -7 -21 61 300° 16 29 29.70 29.71 10 CLR Peak wind: 31 mph (27 kts) from 310° at 01 min
2019-01-21 04:53 3 -6 -21 65 300° 16 29 29.68 29.68 10 FEW025 Peak wind: 33 mph (29 kts) from 300° at 23 min
2019-01-21 03:53 4 -4 -21 68 300° 22 31 29.65 29.65 10 FEW023 Peak wind: 35 mph (31 kts) from 280° at 33 min
2019-01-21 02:53 6 -2 -18 68 290° 20 30 29.63 29.63 10 FEW021 FEW027 Peak wind: 37 mph (33 kts) from 320° at 00 min
2019-01-21 01:53 7 -3 -18 62 300° 22 35 29.61 29.61 10 FEW025 Peak wind: 40 mph (35 kts) from 300° at 17 min
2019-01-21 01:12 8 -2 -17 62 310° 23 39 29.58 - 10 SCT024 Peak wind: 39 mph (34 kts) from 290° at 10 min
2019-01-21 00:53 10 1 -13 66 300° 18 32 29.58 29.58 10 BKN024 Peak wind: 33 mph (29 kts) from 320° at 01 min
6-hr Min Temp (1am): 10.0°F
6-hr Max Temp (1am): 28.0°F
2019-01-21 00:20 11 3 -11 69 300° 14 29 29.57 - 10 BKN022 Peak wind: 33 mph (29 kts) from 320° at 01 min
2019-01-20 23:53 12 4 -10 69 310° 21 31 29.55 29.55 10 SCT022 Peak wind: 33 mph (29 kts) from 310° at 33 min
24-hr Min Temp (12am): 12.0°F
24-hr Max Temp (12am): 46.0°F
2019-01-20 23:25 13 4 -9 66 300° 24 31 29.53 - 10 SCT023 Peak wind: 32 mph (28 kts) from 300° at 13 min
2019-01-20 23:13 13 5 -9 69 300° 20 32 29.53 - 10 BKN022 Peak wind: 32 mph (28 kts) from 300° at 13 min
2019-01-20 22:53 14 6 -7 70 310° 17 31 29.51 29.52 10 SCT022 Peak wind: 31 mph (27 kts) from 320° at 36 min
2019-01-20 22:14 15 7 -6 69 300° 20 31 29.49 - 10 SCT023 Peak wind: 31 mph (27 kts) from 300° at 11 min
2019-01-20 22:04 16 8 -4 70 300° 18 29 29.49 - 10 BKN023 None
2019-01-20 21:53 17 9 -2 69 310° 15 29 29.48 29.48 10 SCT023 Peak wind: 33 mph (29 kts) from 320° at 07 min
Pressure rising rapidly
2019-01-20 21:38 18 9 -1 67 320° 18 30 29.46 - 10 SCT025 Peak wind: 33 mph (29 kts) from 320° at 07 min
2019-01-20 20:53 22 15 3 74 300° 18 32 29.41 29.41 10 BKN020 Peak wind: 32 mph (28 kts) from 310° at 44 min
2019-01-20 19:53 26 20 10 77 310° 20 30 29.37 29.37 10 BKN018 BKN023 OVC044 Peak wind: 35 mph (31 kts) from 320° at 08 min
2019-01-20 19:32 26 19 9 74 320° 22 35 29.36 - 10 BKN023 BKN055 Peak wind: 35 mph (31 kts) from 320° at 08 min
2019-01-20 18:53 28 22 12 77 320° 21 33 29.34 29.33 10 SCT015 SCT020 OVC036 Peak wind: 33 mph (29 kts) from 320° at 47 min
6-hr Precip Total (7pm): 0.21"
6-hr Min Temp (7pm): 25.0°F
6-hr Max Temp (7pm): 46.0°F
2019-01-20 18:49 28 21 12 74 330° 23 33 29.33 - 10 SCT013 SCT018 OVC034 Peak wind: 33 mph (29 kts) from 320° at 47 min
2019-01-20 18:21 27 25 12 92 330° 13 23 29.32 - 10 BKN011 OVC031 Pressure rising rapidly
2019-01-20 18:12 27 25 12 92 330° 16 24 29.30 - 10 SCT011 OVC031 None
2019-01-20 17:53 27 24 11 88 340° 18 30 29.28 29.28 10 BKN010 OVC029 Peak wind: 34 mph (30 kts) from 320° at 43 min

Support USWX by starting your Amazon purchase here.